Lammy — PBRE — position and weather

sailwx.info

Track history (hours):
 
Tides and Currents Weather Stations Pressure Air Temp Water Temp Dewpoint Dewpoint Depression Visibility Wind Speed Wind Dir Waves Ship Positions

Lammy

Last reported at 2015-May-25 00:10 UTC. Time now 2015-May-25 01:29 UTC.
Position N 50°34' W 000°35'.

Length 95 m; draft 4.7 m.

Type: Cargo ship. MMSI: 245391000.

Date/timePositionNaut miles runAvg speedWind from/ knotsBaromVisibWave heightAir tempDewpointWater temp
2015-May-25 00:10N 50°34' W 000°35'813.9
2015-May-24 23:33N 50°37' W 000°47'1313.1
2015-May-24 22:34N 50°44' W 001°05'1111.5
2015-May-24 21:34N 50°51' W 001°20'6 5.5
2015-May-24 20:33N 50°54' W 001°26'0 0.0
2015-May-24 19:24N 50°54' W 001°26'0 0.0
2015-May-24 16:27N 50°54' W 001°26'0 0.0
2015-May-24 14:24N 50°54' W 001°26'0 0.0
2015-May-24 13:33N 50°54' W 001°26'0 0.0
2015-May-24 12:33N 50°54' W 001°26'0 0.0
2015-May-24 11:33N 50°54' W 001°26'0 0.0
2015-May-24 10:33N 50°54' W 001°26'0 0.0
2015-May-24 09:33N 50°54' W 001°26'0 0.0
2015-May-24 08:21N 50°54' W 001°26'0 0.0
2015-May-24 07:24N 50°54' W 001°26'0 0.0
2015-May-24 06:27N 50°54' W 001°26'0 0.0
2015-May-24 05:33N 50°54' W 001°26'0 0.0
2015-May-24 04:33N 50°54' W 001°26'0 0.0
2015-May-24 03:33N 50°54' W 001°26'0 0.0
2015-May-24 02:33N 50°54' W 001°26'0 0.0
2015-May-24 01:33N 50°54' W 001°26'0 0.0
2015-May-24 00:33N 50°54' W 001°26'0 0.0
2015-May-23 23:33N 50°54' W 001°26'0 0.0
2015-May-23 22:30N 50°54' W 001°26'0 0.0
2015-May-23 21:33N 50°54' W 001°26'0 0.0
2015-May-23 20:33N 50°54' W 001°26'0 0.0
2015-May-23 19:33N 50°54' W 001°26'0 0.0
2015-May-23 18:32N 50°54' W 001°26'7 6.7
2015-May-23 17:33N 50°50' W 001°19'1212.3
2015-May-23 16:33N 50°44' W 001°02'1212.4
2015-May-23 15:33N 50°38' W 000°45'1312.7
2015-May-23 14:30N 50°43' W 000°25'10 9.9
2015-May-23 13:31N 50°50' W 000°15'0 0.3
2015-May-23 12:13N 50°50' W 000°14'0 0.0
2015-May-23 11:32N 50°50' W 000°14'0 0.0
2015-May-22 16:33N 50°50' W 000°14'0 0.2
2015-May-22 15:34N 50°50' W 000°14'16 7.8
2015-May-22 13:32N 50°43' E 000°08'1111.8
2015-May-22 12:34N 50°43' E 000°26'1111.3
2015-May-22 11:34N 50°44' E 000°44'2713.3
2015-May-22 09:30N 51°01' E 001°19'1415.3
2015-May-22 08:33N 51°09' E 001°37'1313.3
2015-May-22 07:33N 51°22' E 001°43'1212.2
2015-May-22 06:33N 51°34' E 001°45'1211.6
2015-May-22 05:33N 51°46' E 001°45'1111.0
2015-May-22 04:33N 51°57' E 001°45'1110.6
2015-May-22 03:33N 52°07' E 001°48'1211.6
2015-May-22 02:33N 52°19' E 001°50'1312.7
2015-May-22 01:33N 52°32' E 001°52'1313.2
2015-May-22 00:33N 52°44' E 001°47'1414.2
2015-May-21 23:33N 52°55' E 001°31'1514.6
2015-May-21 22:33N 53°02' E 001°09'3014.2
2015-May-21 20:28N 53°22' E 000°32'1313.8
2015-May-21 19:33N 53°31' E 000°18'1110.6
2015-May-21 18:33N 53°35' E 000°02'9 9.5
2015-May-21 17:33N 53°40' W 000°12'5 5.4
2015-May-21 16:33N 53°44' W 000°16'0 0.4
2015-May-21 15:34N 53°45' W 000°16'0 0.0
2015-May-21 14:34N 53°45' W 000°16'0 0.0
2015-May-21 13:33N 53°45' W 000°16'0 0.0
2015-May-21 12:33N 53°45' W 000°16'0 0.0
2015-May-21 11:34N 53°45' W 000°16'0 0.0
2015-May-21 10:34N 53°45' W 000°16'0 0.0
2015-May-21 09:33N 53°45' W 000°16'0 0.0
2015-May-21 08:33N 53°45' W 000°16'0 0.0
2015-May-21 07:34N 53°45' W 000°16'0 0.0
2015-May-21 06:33N 53°45' W 000°16'0 0.0
2015-May-21 05:33N 53°45' W 000°16'0 0.0
2015-May-21 04:33N 53°45' W 000°16'0 0.0
2015-May-21 03:34N 53°45' W 000°16'0 0.0
2015-May-21 02:34N 53°45' W 000°16'0 0.0
2015-May-21 01:33N 53°45' W 000°16'0 0.0
2015-May-21 00:33N 53°45' W 000°16'0 0.0
2015-May-20 23:34N 53°45' W 000°16'0 0.0
2015-May-20 22:34N 53°45' W 000°16'0 0.0
2015-May-20 21:34N 53°45' W 000°16'0 0.0
2015-May-20 20:34N 53°45' W 000°16'0 0.0
2015-May-20 19:33N 53°45' W 000°16'0 0.0
2015-May-20 18:33N 53°45' W 000°16'0 0.0
2015-May-20 17:34N 53°45' W 000°16'0 0.0
2015-May-20 16:33N 53°45' W 000°16'0 0.0
2015-May-20 15:33N 53°45' W 000°16'0 0.0
2015-May-20 14:34N 53°45' W 000°16'0 0.0
2015-May-20 13:33N 53°45' W 000°16'0 0.1
2015-May-20 12:33N 53°45' W 000°16'0 0.0
2015-May-20 11:34N 53°45' W 000°16'0 0.0
2015-May-20 10:33N 53°45' W 000°16'0 0.0
2015-May-20 09:33N 53°45' W 000°16'0 0.0
2015-May-20 08:34N 53°45' W 000°16'0 0.4
2015-May-20 07:33N 53°44' W 000°16'3 3.3
2015-May-20 06:33N 53°42' W 000°14'1110.9
2015-May-20 05:33N 53°35' E 000°01'1010.3
2015-May-20 04:33N 53°36' E 000°19'1310.6
2015-May-20 03:19N 53°45' E 000°35'810.6
2015-May-20 02:33N 53°50' E 000°46'31211.1
2015-May-18 22:27N 56°58' E 008°04'10510.7
2015-May-18 12:33N 57°39' E 011°05'1212.2
2015-May-18 11:33N 57°31' E 011°21'1212.2
2015-May-18 10:32N 57°19' E 011°32'1812.9
2015-May-18 09:08N 57°03' E 011°46'712.8
2015-May-18 08:33N 56°56' E 011°51'1212.4
2015-May-18 07:33N 56°45' E 012°01'1211.7
2015-May-18 06:33N 56°34' E 012°10'1211.6
2015-May-18 05:33N 56°24' E 012°19'1212.0
2015-May-18 04:33N 56°13' E 012°27'1211.7
2015-May-18 03:33N 56°03' E 012°39'1211.6
2015-May-18 02:33N 55°52' E 012°44'1212.0
2015-May-18 01:33N 55°40' E 012°41'1010.4
2015-May-18 00:33N 55°30' E 012°43'1211.5
2015-May-17 23:33N 55°18' E 012°43'1412.0
2015-May-17 22:23N 55°15' E 013°07'4012.3
2015-May-17 19:11N 55°14' E 014°16'1412.9
2015-May-17 18:05N 55°25' E 014°32'712.6
2015-May-17 17:31N 55°29' E 014°42'1412.2
2015-May-17 16:24N 55°36' E 015°03'1012.3
2015-May-17 15:33N 55°41' E 015°19'10411.5
2015-May-17 06:27N 57°06' E 017°09'1213.0
2015-May-17 05:33N 57°17' E 017°16'  
Track history (hours):
 
Tides and Currents Weather Stations Pressure Air Temp Water Temp Dewpoint Dewpoint Depression Visibility Wind Speed Wind Dir Waves Ship Positions

Lammy

Last reported at 2015-May-25 00:10 UTC. Time now 2015-May-25 01:29 UTC.
Position N 50°34' W 000°35'.

Length 95 m; draft 4.7 m.

Type: Cargo ship. MMSI: 245391000.

Date/timePositionNaut miles runAvg speedWind from/ knotsBaromVisibWave heightAir tempDewpointWater temp
2015-May-25 00:10N 50°34' W 000°35'813.9
2015-May-24 23:33N 50°37' W 000°47'1313.1
2015-May-24 22:34N 50°44' W 001°05'1111.5
2015-May-24 21:34N 50°51' W 001°20'6 5.5
2015-May-24 20:33N 50°54' W 001°26'0 0.0
2015-May-24 19:24N 50°54' W 001°26'0 0.0
2015-May-24 16:27N 50°54' W 001°26'0 0.0
2015-May-24 14:24N 50°54' W 001°26'0 0.0
2015-May-24 13:33N 50°54' W 001°26'0 0.0
2015-May-24 12:33N 50°54' W 001°26'0 0.0
2015-May-24 11:33N 50°54' W 001°26'0 0.0
2015-May-24 10:33N 50°54' W 001°26'0 0.0
2015-May-24 09:33N 50°54' W 001°26'0 0.0
2015-May-24 08:21N 50°54' W 001°26'0 0.0
2015-May-24 07:24N 50°54' W 001°26'0 0.0
2015-May-24 06:27N 50°54' W 001°26'0 0.0
2015-May-24 05:33N 50°54' W 001°26'0 0.0
2015-May-24 04:33N 50°54' W 001°26'0 0.0
2015-May-24 03:33N 50°54' W 001°26'0 0.0
2015-May-24 02:33N 50°54' W 001°26'0 0.0
2015-May-24 01:33N 50°54' W 001°26'0 0.0
2015-May-24 00:33N 50°54' W 001°26'0 0.0
2015-May-23 23:33N 50°54' W 001°26'0 0.0
2015-May-23 22:30N 50°54' W 001°26'0 0.0
2015-May-23 21:33N 50°54' W 001°26'0 0.0
2015-May-23 20:33N 50°54' W 001°26'0 0.0
2015-May-23 19:33N 50°54' W 001°26'0 0.0
2015-May-23 18:32N 50°54' W 001°26'7 6.7
2015-May-23 17:33N 50°50' W 001°19'1212.3
2015-May-23 16:33N 50°44' W 001°02'1212.4
2015-May-23 15:33N 50°38' W 000°45'1312.7
2015-May-23 14:30N 50°43' W 000°25'10 9.9
2015-May-23 13:31N 50°50' W 000°15'0 0.3
2015-May-23 12:13N 50°50' W 000°14'0 0.0
2015-May-23 11:32N 50°50' W 000°14'0 0.0
2015-May-22 16:33N 50°50' W 000°14'0 0.2
2015-May-22 15:34N 50°50' W 000°14'16 7.8
2015-May-22 13:32N 50°43' E 000°08'1111.8
2015-May-22 12:34N 50°43' E 000°26'1111.3
2015-May-22 11:34N 50°44' E 000°44'2713.3
2015-May-22 09:30N 51°01' E 001°19'1415.3
2015-May-22 08:33N 51°09' E 001°37'1313.3
2015-May-22 07:33N 51°22' E 001°43'1212.2
2015-May-22 06:33N 51°34' E 001°45'1211.6
2015-May-22 05:33N 51°46' E 001°45'1111.0
2015-May-22 04:33N 51°57' E 001°45'1110.6
2015-May-22 03:33N 52°07' E 001°48'1211.6
2015-May-22 02:33N 52°19' E 001°50'1312.7
2015-May-22 01:33N 52°32' E 001°52'1313.2
2015-May-22 00:33N 52°44' E 001°47'1414.2
2015-May-21 23:33N 52°55' E 001°31'1514.6
2015-May-21 22:33N 53°02' E 001°09'3014.2
2015-May-21 20:28N 53°22' E 000°32'1313.8
2015-May-21 19:33N 53°31' E 000°18'1110.6
2015-May-21 18:33N 53°35' E 000°02'9 9.5
2015-May-21 17:33N 53°40' W 000°12'5 5.4
2015-May-21 16:33N 53°44' W 000°16'0 0.4
2015-May-21 15:34N 53°45' W 000°16'0 0.0
2015-May-21 14:34N 53°45' W 000°16'0 0.0
2015-May-21 13:33N 53°45' W 000°16'0 0.0
2015-May-21 12:33N 53°45' W 000°16'0 0.0
2015-May-21 11:34N 53°45' W 000°16'0 0.0
2015-May-21 10:34N 53°45' W 000°16'0 0.0
2015-May-21 09:33N 53°45' W 000°16'0 0.0
2015-May-21 08:33N 53°45' W 000°16'0 0.0
2015-May-21 07:34N 53°45' W 000°16'0 0.0
2015-May-21 06:33N 53°45' W 000°16'0 0.0
2015-May-21 05:33N 53°45' W 000°16'0 0.0
2015-May-21 04:33N 53°45' W 000°16'0 0.0
2015-May-21 03:34N 53°45' W 000°16'0 0.0
2015-May-21 02:34N 53°45' W 000°16'0 0.0
2015-May-21 01:33N 53°45' W 000°16'0 0.0
2015-May-21 00:33N 53°45' W 000°16'0 0.0
2015-May-20 23:34N 53°45' W 000°16'0 0.0
2015-May-20 22:34N 53°45' W 000°16'0 0.0
2015-May-20 21:34N 53°45' W 000°16'0 0.0
2015-May-20 20:34N 53°45' W 000°16'0 0.0
2015-May-20 19:33N 53°45' W 000°16'0 0.0
2015-May-20 18:33N 53°45' W 000°16'0 0.0
2015-May-20 17:34N 53°45' W 000°16'0 0.0
2015-May-20 16:33N 53°45' W 000°16'0 0.0
2015-May-20 15:33N 53°45' W 000°16'0 0.0
2015-May-20 14:34N 53°45' W 000°16'0 0.0
2015-May-20 13:33N 53°45' W 000°16'0 0.1
2015-May-20 12:33N 53°45' W 000°16'0 0.0
2015-May-20 11:34N 53°45' W 000°16'0 0.0
2015-May-20 10:33N 53°45' W 000°16'0 0.0
2015-May-20 09:33N 53°45' W 000°16'0 0.0
2015-May-20 08:34N 53°45' W 000°16'0 0.4
2015-May-20 07:33N 53°44' W 000°16'3 3.3
2015-May-20 06:33N 53°42' W 000°14'1110.9
2015-May-20 05:33N 53°35' E 000°01'1010.3
2015-May-20 04:33N 53°36' E 000°19'1310.6
2015-May-20 03:19N 53°45' E 000°35'810.6
2015-May-20 02:33N 53°50' E 000°46'31211.1
2015-May-18 22:27N 56°58' E 008°04'10510.7
2015-May-18 12:33N 57°39' E 011°05'1212.2
2015-May-18 11:33N 57°31' E 011°21'1212.2
2015-May-18 10:32N 57°19' E 011°32'1812.9
2015-May-18 09:08N 57°03' E 011°46'712.8
2015-May-18 08:33N 56°56' E 011°51'1212.4
2015-May-18 07:33N 56°45' E 012°01'1211.7
2015-May-18 06:33N 56°34' E 012°10'1211.6
2015-May-18 05:33N 56°24' E 012°19'1212.0
2015-May-18 04:33N 56°13' E 012°27'1211.7
2015-May-18 03:33N 56°03' E 012°39'1211.6
2015-May-18 02:33N 55°52' E 012°44'1212.0
2015-May-18 01:33N 55°40' E 012°41'1010.4
2015-May-18 00:33N 55°30' E 012°43'1211.5
2015-May-17 23:33N 55°18' E 012°43'1412.0
2015-May-17 22:23N 55°15' E 013°07'4012.3
2015-May-17 19:11N 55°14' E 014°16'1412.9
2015-May-17 18:05N 55°25' E 014°32'712.6
2015-May-17 17:31N 55°29' E 014°42'1412.2
2015-May-17 16:24N 55°36' E 015°03'1012.3
2015-May-17 15:33N 55°41' E 015°19'10411.5
2015-May-17 06:27N 57°06' E 017°09'1213.0
2015-May-17 05:33N 57°17' E 017°16'  

Dump ship's entire track history